Time;durP1;ratioP1;P1;durP2;ratioP2;P2;SDS_P1;SDS_P2;PMS_P1;PMS_P2;Temp;Humidity;BMP_temperature;BMP_pressure;BME280_temperature;BME280_humidity;BME280_pressure;Samples;Min_cycle;Max_cycle;Signal;HPM_P1;HPM_P2
2020/12/14 00:00:10;;;;;;;7.00;5.63;;;5.50;99.90;;;;;;5070942;28;20319;-58
2020/12/14 00:02:37;;;;;;;7.15;6.32;;;5.50;99.90;;;;;;5072060;28;20264;-57
2020/12/14 00:05:03;;;;;;;6.38;5.70;;;5.30;99.90;;;;;;5070676;28;20644;-57
2020/12/14 00:07:28;;;;;;;8.15;6.30;;;5.20;99.90;;;;;;5070764;28;20211;-57
2020/12/14 00:09:54;;;;;;;8.30;6.60;;;5.30;99.90;;;;;;5070428;28;20647;-58
2020/12/14 00:12:20;;;;;;;8.40;5.97;;;5.00;99.90;;;;;;5070400;28;20177;-57
2020/12/14 00:14:45;;;;;;;6.90;6.20;;;5.20;99.90;;;;;;5071322;28;20231;-58
2020/12/14 00:17:11;;;;;;;7.57;6.70;;;4.90;99.90;;;;;;5071171;28;20260;-57
2020/12/14 00:19:36;;;;;;;7.40;6.60;;;4.70;99.90;;;;;;5070567;28;20223;-58
2020/12/14 00:22:02;;;;;;;7.93;6.90;;;4.90;99.90;;;;;;5070713;28;20215;-57
2020/12/14 00:24:28;;;;;;;8.93;7.50;;;4.80;99.90;;;;;;5070187;28;20216;-57
2020/12/14 00:26:53;;;;;;;8.57;7.27;;;4.80;99.90;;;;;;5069750;28;20258;-57
2020/12/14 00:29:20;;;;;;;9.30;6.90;;;4.70;99.90;;;;;;5070442;28;20433;-57
2020/12/14 00:31:53;;;;;;;11.10;6.60;;;5.10;99.90;;;;;;5068559;28;20185;-58
2020/12/14 00:34:20;;;;;;;7.63;6.93;;;5.00;99.90;;;;;;5070525;28;20546;-57
2020/12/14 00:36:46;;;;;;;9.68;7.18;;;5.10;99.90;;;;;;5069818;28;20216;-57
2020/12/14 00:39:12;;;;;;;8.43;7.00;;;5.00;99.90;;;;;;5070275;28;20214;-58
2020/12/14 00:41:37;;;;;;;7.68;6.00;;;5.00;99.90;;;;;;5069827;28;20177;-57
2020/12/14 00:44:03;;;;;;;7.70;7.00;;;5.00;99.90;;;;;;5068761;28;20716;-57
2020/12/14 00:46:29;;;;;;;7.60;6.80;;;5.10;99.90;;;;;;5069637;28;20204;-57
2020/12/14 00:48:54;;;;;;;7.87;6.70;;;4.80;99.90;;;;;;5069432;28;20189;-57
2020/12/14 00:51:27;;;;;;;7.20;6.40;;;4.80;99.90;;;;;;5069687;28;20239;-57
2020/12/14 00:53:54;;;;;;;7.82;6.57;;;5.00;99.90;;;;;;5069469;28;20195;-57
2020/12/14 00:56:20;;;;;;;8.10;7.22;;;4.80;99.90;;;;;;5068708;28;20235;-57
2020/12/14 00:58:46;;;;;;;7.20;6.50;;;4.90;99.90;;;;;;5069665;28;20239;-57
2020/12/14 01:01:13;;;;;;;6.60;6.00;;;5.10;99.90;;;;;;5069804;28;20174;-57
2020/12/14 01:03:38;;;;;;;9.93;6.78;;;5.10;99.90;;;;;;5069630;28;20670;-58
2020/12/14 01:06:04;;;;;;;7.67;6.90;;;5.00;99.90;;;;;;5069475;28;20213;-57
2020/12/14 01:08:30;;;;;;;7.40;6.70;;;4.90;99.90;;;;;;5069140;28;20595;-57
2020/12/14 01:10:55;;;;;;;8.87;6.73;;;4.80;99.90;;;;;;5068747;28;20660;-57
2020/12/14 01:13:21;;;;;;;8.57;6.83;;;5.10;99.90;;;;;;5068753;28;20547;-57
2020/12/14 01:15:46;;;;;;;8.83;6.70;;;5.00;99.90;;;;;;5069740;28;20211;-58
2020/12/14 01:18:12;;;;;;;8.43;6.93;;;5.00;99.90;;;;;;5069457;28;20209;-57
2020/12/14 01:20:41;;;;;;;6.90;6.30;;;5.00;99.90;;;;;;5069806;28;20189;-57
2020/12/14 01:23:07;;;;;;;9.93;7.47;;;5.10;99.90;;;;;;5069219;28;20270;-57
2020/12/14 01:25:33;;;;;;;6.78;5.90;;;5.00;99.90;;;;;;5069223;28;20217;-57
2020/12/14 01:27:59;;;;;;;7.83;7.10;;;4.80;99.90;;;;;;5068893;28;20189;-57
2020/12/14 01:30:25;;;;;;;7.93;6.03;;;4.80;99.90;;;;;;5065570;28;20451;-57
2020/12/14 01:32:51;;;;;;;7.30;6.60;;;4.70;99.90;;;;;;5063556;28;20243;-57
2020/12/14 01:35:17;;;;;;;7.25;6.13;;;4.90;99.90;;;;;;5069292;28;20242;-57
2020/12/14 01:37:42;;;;;;;6.10;5.50;;;4.60;99.90;;;;;;5068760;28;20288;-57
2020/12/14 01:40:08;;;;;;;5.87;5.37;;;4.80;99.90;;;;;;5068756;28;20439;-57
2020/12/14 01:42:47;;;;;;;7.53;6.83;;;4.70;99.90;;;;;;5069031;28;20553;-57
2020/12/14 01:45:12;;;;;;;6.53;5.93;;;4.70;99.90;;;;;;5069239;28;20215;-57
2020/12/14 01:47:39;;;;;;;7.70;6.47;;;4.80;99.90;;;;;;5065895;28;20195;-57
2020/12/14 01:50:06;;;;;;;7.45;6.00;;;4.80;99.90;;;;;;5067218;28;20185;-57
2020/12/14 01:52:33;;;;;;;5.80;5.20;;;4.80;99.90;;;;;;5068346;28;20189;-57
2020/12/14 01:55:01;;;;;;;7.40;6.70;;;4.70;99.90;;;;;;5068717;28;20183;-57
2020/12/14 01:57:28;;;;;;;6.82;5.75;;;4.40;99.90;;;;;;5069477;28;20181;-57
2020/12/14 01:59:57;;;;;;;8.88;6.80;;;4.60;99.90;;;;;;5065137;28;20590;-61
2020/12/14 02:02:26;;;;;;;7.30;6.55;;;4.50;99.90;;;;;;5068969;28;20204;-57
2020/12/14 02:04:52;;;;;;;7.97;7.03;;;4.10;99.90;;;;;;5082410;28;20181;-57
2020/12/14 02:07:18;;;;;;;6.40;5.70;;;4.80;99.90;;;;;;5065530;28;20608;-57
2020/12/14 02:09:43;;;;;;;7.60;6.80;;;4.90;99.90;;;;;;5068560;28;20196;-57
2020/12/14 02:12:09;;;;;;;7.80;5.90;;;4.80;99.90;;;;;;5068426;28;20972;-57
2020/12/14 02:14:36;;;;;;;7.20;6.20;;;4.80;99.90;;;;;;5068755;28;20193;-57
2020/12/14 02:17:04;;;;;;;7.35;6.28;;;4.70;99.90;;;;;;5068292;28;20583;-57
2020/12/14 02:19:30;;;;;;;6.40;5.80;;;4.80;99.90;;;;;;5067886;28;20236;-57
2020/12/14 02:21:57;;;;;;;6.93;6.32;;;4.50;99.90;;;;;;5068307;28;20234;-57
2020/12/14 02:24:23;;;;;;;9.32;6.82;;;4.20;99.90;;;;;;5068153;28;20271;-57
2020/12/14 02:26:49;;;;;;;7.00;5.93;;;4.10;99.90;;;;;;5069666;28;20251;-57
2020/12/14 02:29:16;;;;;;;6.50;5.80;;;4.30;99.90;;;;;;5068272;28;20230;-57
2020/12/14 02:31:41;;;;;;;6.90;6.20;;;4.20;99.90;;;;;;5065245;28;20181;-57
2020/12/14 02:34:07;;;;;;;7.33;6.47;;;4.40;99.90;;;;;;5067881;28;20192;-57
2020/12/14 02:36:34;;;;;;;9.65;6.63;;;4.30;99.90;;;;;;5067217;28;20354;-57
2020/12/14 02:38:59;;;;;;;7.38;6.07;;;4.40;99.90;;;;;;5067934;28;20339;-57
2020/12/14 02:41:25;;;;;;;7.63;6.00;;;4.20;99.90;;;;;;5068354;28;20237;-57
2020/12/14 02:43:50;;;;;;;6.83;5.80;;;4.00;99.90;;;;;;5067899;28;20185;-56
2020/12/14 02:46:16;;;;;;;9.20;6.00;;;4.40;99.90;;;;;;5067928;28;20681;-57
2020/12/14 02:48:42;;;;;;;6.93;6.07;;;4.20;99.90;;;;;;5067384;28;20196;-57
2020/12/14 02:51:07;;;;;;;6.30;5.70;;;4.10;99.90;;;;;;5067688;28;20189;-57
2020/12/14 02:53:33;;;;;;;7.73;5.97;;;4.40;99.90;;;;;;5067653;28;20581;-57
2020/12/14 02:55:58;;;;;;;6.73;6.03;;;4.40;99.90;;;;;;5067312;28;20204;-57
2020/12/14 02:58:24;;;;;;;8.20;6.13;;;4.40;99.90;;;;;;5067727;28;20215;-57
2020/12/14 03:00:49;;;;;;;7.13;6.10;;;4.40;99.90;;;;;;5068090;28;20216;-57
2020/12/14 03:03:15;;;;;;;7.10;5.73;;;3.90;99.90;;;;;;5067062;28;20584;-55
2020/12/14 03:05:41;;;;;;;6.27;5.67;;;4.10;99.90;;;;;;5067772;28;20305;-55
2020/12/14 03:08:06;;;;;;;6.97;6.20;;;4.00;99.90;;;;;;5067735;28;20288;-58
2020/12/14 03:10:32;;;;;;;8.47;6.20;;;4.10;99.90;;;;;;5066987;28;20583;-58
2020/12/14 03:12:58;;;;;;;7.17;6.10;;;4.50;99.90;;;;;;5067378;28;20196;-57
2020/12/14 03:15:23;;;;;;;7.53;6.77;;;4.30;99.90;;;;;;5067368;28;20469;-57
2020/12/14 03:17:49;;;;;;;5.53;5.00;;;4.30;99.90;;;;;;5068277;28;20280;-57
2020/12/14 03:20:15;;;;;;;6.83;5.80;;;4.10;99.90;;;;;;5072075;28;20657;-57
2020/12/14 03:22:40;;;;;;;7.00;6.17;;;4.20;99.90;;;;;;5071884;28;20212;-57
2020/12/14 03:25:06;;;;;;;6.23;5.50;;;4.00;99.90;;;;;;5071562;28;20260;-55
2020/12/14 03:27:31;;;;;;;5.93;5.30;;;4.00;99.90;;;;;;5071425;28;20189;-55
2020/12/14 03:29:57;;;;;;;6.57;5.33;;;4.20;99.90;;;;;;5071301;28;20339;-55
2020/12/14 03:32:22;;;;;;;7.53;5.43;;;4.20;99.90;;;;;;5070841;28;20258;-58
2020/12/14 03:34:48;;;;;;;7.10;6.00;;;4.20;99.90;;;;;;5071502;28;20225;-57
2020/12/14 03:37:14;;;;;;;6.10;5.50;;;4.30;99.90;;;;;;5071315;28;20284;-57
2020/12/14 03:39:39;;;;;;;6.70;5.97;;;4.40;99.90;;;;;;5071339;28;20312;-55
2020/12/14 03:42:05;;;;;;;5.13;4.63;;;4.20;99.90;;;;;;5071262;28;20629;-58
2020/12/14 03:44:30;;;;;;;7.70;5.17;;;4.10;99.90;;;;;;5071108;28;20192;-57
2020/12/14 03:46:56;;;;;;;6.30;5.30;;;4.10;99.90;;;;;;5070798;28;20262;-57
2020/12/14 03:49:22;;;;;;;6.23;5.50;;;4.20;99.90;;;;;;5070724;28;20601;-55
2020/12/14 03:51:47;;;;;;;5.80;5.20;;;4.10;99.90;;;;;;5070825;28;20180;-55
2020/12/14 03:54:13;;;;;;;6.13;5.10;;;4.20;99.90;;;;;;5070804;28;20193;-57
2020/12/14 03:56:38;;;;;;;8.10;5.50;;;4.20;99.90;;;;;;5070207;28;20315;-55
2020/12/14 03:59:04;;;;;;;6.40;5.47;;;4.30;99.90;;;;;;5070755;28;20212;-58
2020/12/14 04:01:30;;;;;;;6.13;5.30;;;4.10;99.90;;;;;;5070672;28;20185;-57
2020/12/14 04:03:56;;;;;;;5.78;5.00;;;4.00;99.90;;;;;;5070535;28;20193;-55
2020/12/14 04:06:26;;;;;;;6.57;5.87;;;4.00;99.90;;;;;;5070601;28;20635;-57
2020/12/14 04:08:53;;;;;;;5.85;5.30;;;4.20;99.90;;;;;;5071968;28;20193;-58
2020/12/14 04:11:19;;;;;;;6.43;5.40;;;4.00;99.90;;;;;;5070059;28;20579;-55
2020/12/14 04:13:46;;;;;;;6.20;5.60;;;4.10;99.90;;;;;;5070308;28;20185;-55
2020/12/14 04:16:12;;;;;;;5.97;5.35;;;4.10;99.90;;;;;;5070714;28;20455;-57
2020/12/14 04:18:38;;;;;;;6.10;5.20;;;3.60;99.90;;;;;;5070053;28;20697;-57
2020/12/14 04:21:04;;;;;;;7.40;5.22;;;4.00;99.90;;;;;;5070810;28;20181;-55
2020/12/14 04:23:30;;;;;;;5.57;4.90;;;4.10;99.90;;;;;;5070668;28;20656;-55
2020/12/14 04:25:56;;;;;;;14.55;9.85;;;4.10;99.90;;;;;;5070429;28;20471;-55
2020/12/14 04:28:22;;;;;;;6.75;5.10;;;4.10;99.90;;;;;;5071115;28;20193;-56
2020/12/14 04:30:48;;;;;;;5.57;5.00;;;4.20;99.90;;;;;;5069252;28;20197;-55
2020/12/14 04:33:13;;;;;;;5.30;4.63;;;3.40;99.90;;;;;;5070221;28;20634;-55
2020/12/14 04:35:39;;;;;;;6.37;5.47;;;4.10;99.90;;;;;;5070165;28;20212;-55
2020/12/14 04:38:05;;;;;;;5.53;4.60;;;3.90;99.90;;;;;;5070370;28;20308;-55
2020/12/14 04:40:31;;;;;;;6.33;5.73;;;3.80;99.90;;;;;;5070334;28;20220;-58
2020/12/14 04:43:00;;;;;;;5.53;5.03;;;3.80;99.90;;;;;;5070721;28;20200;-58
2020/12/14 04:45:27;;;;;;;5.95;5.07;;;3.90;99.90;;;;;;5057098;28;20212;-55
2020/12/14 04:47:59;;;;;;;6.00;5.30;;;3.50;99.90;;;;;;5071435;28;20181;-58
2020/12/14 04:50:26;;;;;;;5.80;5.20;;;3.50;99.90;;;;;;5057452;28;20242;-57
2020/12/14 04:52:52;;;;;;;6.72;5.47;;;3.70;99.90;;;;;;5069199;28;20177;-57
2020/12/14 04:55:23;;;;;;;7.60;6.00;;;3.40;99.90;;;;;;5069539;28;20288;-55
2020/12/14 04:57:50;;;;;;;5.72;5.13;;;3.70;99.90;;;;;;5070034;28;20231;-57
2020/12/14 05:00:17;;;;;;;6.43;5.40;;;3.50;99.90;;;;;;5070953;28;20185;-57
2020/12/14 05:02:43;;;;;;;6.85;5.32;;;3.60;99.90;;;;;;5068354;28;20188;-57
2020/12/14 05:05:12;;;;;;;6.30;5.70;;;3.50;99.90;;;;;;5070976;28;20583;-55
2020/12/14 05:07:45;;;;;;;7.03;5.82;;;3.70;99.90;;;;;;5067678;28;20493;-58
2020/12/14 05:10:13;;;;;;;6.15;5.20;;;3.90;99.90;;;;;;5069541;28;20189;-57
2020/12/14 05:12:43;;;;;;;6.60;5.55;;;3.90;99.90;;;;;;5069556;28;20329;-58
2020/12/14 05:15:26;;;;;;;6.20;5.50;;;3.70;99.90;;;;;;5070034;28;20201;-58
2020/12/14 05:18:14;;;;;;;6.18;5.57;;;3.90;99.90;;;;;;5069488;28;20530;-58
2020/12/14 05:20:54;;;;;;;6.30;5.70;;;3.70;99.90;;;;;;5065492;28;20181;-57
2020/12/14 05:23:20;;;;;;;7.50;5.25;;;3.90;99.90;;;;;;5069126;28;20457;-57
2020/12/14 05:25:45;;;;;;;6.10;5.50;;;3.80;99.90;;;;;;5068753;28;20219;-58
2020/12/14 05:28:14;;;;;;;8.27;6.30;;;3.80;99.90;;;;;;5069151;28;20268;-55
2020/12/14 05:30:44;;;;;;;5.95;5.30;;;4.00;99.90;;;;;;5067156;28;20721;-58
2020/12/14 05:33:11;;;;;;;8.55;5.90;;;3.70;99.90;;;;;;5059481;28;20237;-56
2020/12/14 05:35:42;;;;;;;7.45;6.25;;;4.00;99.90;;;;;;5062713;28;20535;-58
2020/12/14 05:38:18;;;;;;;6.30;5.70;;;4.10;99.90;;;;;;5065008;28;20244;-58
2020/12/14 05:41:01;;;;;;;8.00;6.50;;;3.90;99.90;;;;;;5089286;28;21831;-55
2020/12/14 05:43:31;;;;;;;8.10;6.63;;;3.80;99.90;;;;;;5081936;28;20213;-58
2020/12/14 05:46:17;;;;;;;9.35;8.23;;;4.10;99.90;;;;;;5067604;28;20259;-58
2020/12/14 05:48:43;;;;;;;7.38;6.05;;;4.10;99.90;;;;;;5067113;28;20201;-57
2020/12/14 05:51:09;;;;;;;8.65;6.07;;;4.00;99.90;;;;;;5065021;28;20196;-56
2020/12/14 05:53:49;;;;;;;7.63;6.22;;;4.10;99.90;;;;;;5066188;28;20721;-59
2020/12/14 05:56:17;;;;;;;7.35;6.22;;;4.00;99.90;;;;;;5062671;28;20303;-59
2020/12/14 05:58:43;;;;;;;8.23;6.35;;;3.80;99.90;;;;;;5066436;28;20293;-56
2020/12/14 06:01:09;;;;;;;11.00;9.05;;;3.60;99.90;;;;;;5067112;28;20219;-58
2020/12/14 06:03:35;;;;;;;7.87;7.07;;;4.00;99.90;;;;;;5068461;28;20638;-58
2020/12/14 06:06:06;;;;;;;9.70;6.95;;;4.00;99.90;;;;;;5065023;28;21404;-58
2020/12/14 06:08:47;;;;;;;9.68;6.65;;;4.00;99.90;;;;;;5067622;28;20653;-57
2020/12/14 06:11:14;;;;;;;8.13;6.80;;;4.10;99.90;;;;;;5063380;28;20216;-56
2020/12/14 06:13:48;;;;;;;10.15;6.85;;;4.30;99.90;;;;;;5067573;28;20189;-57
2020/12/14 06:16:25;;;;;;;14.85;6.63;;;4.40;99.90;;;;;;5062602;28;20717;-56
2020/12/14 06:18:51;;;;;;;7.53;6.72;;;4.20;99.90;;;;;;5064523;28;20294;-57
2020/12/14 06:21:25;;;;;;;9.10;7.63;;;4.10;99.90;;;;;;5074406;28;20184;-57
2020/12/14 06:23:52;;;;;;;10.88;7.03;;;4.10;99.90;;;;;;5067319;28;20173;-57
2020/12/14 06:26:22;;;;;;;9.65;7.30;;;4.30;99.90;;;;;;5068033;28;20330;-56
2020/12/14 06:28:52;;;;;;;11.27;7.90;;;4.10;99.90;;;;;;5067314;28;20547;-56
2020/12/14 06:31:40;;;;;;;8.50;7.15;;;4.10;99.90;;;;;;5066592;28;20542;-59
2020/12/14 06:34:31;;;;;;;8.32;7.00;;;4.10;99.90;;;;;;5065906;28;20192;-58
2020/12/14 06:36:58;;;;;;;8.35;6.90;;;4.30;99.90;;;;;;5065892;28;20197;-58
2020/12/14 06:39:29;;;;;;;8.63;6.28;;;3.80;99.90;;;;;;5082334;28;20303;-57
2020/12/14 06:42:09;;;;;;;12.68;7.28;;;4.20;99.90;;;;;;5064797;28;20263;-57
2020/12/14 06:45:01;;;;;;;8.70;7.07;;;4.50;99.90;;;;;;5065001;28;20181;-58
2020/12/14 06:47:44;;;;;;;10.00;7.22;;;4.40;99.90;;;;;;5050044;28;20542;-57
2020/12/14 06:50:29;;;;;;;9.70;7.30;;;4.30;99.90;;;;;;5066231;28;20553;-59
2020/12/14 06:52:56;;;;;;;10.20;7.55;;;4.30;99.90;;;;;;5065221;28;20572;-60
2020/12/14 06:55:42;;;;;;;10.88;7.93;;;4.50;99.90;;;;;;5068592;28;20284;-56
2020/12/14 06:58:10;;;;;;;11.07;8.45;;;4.70;99.90;;;;;;5084124;28;20212;-56
2020/12/14 07:00:36;;;;;;;10.05;7.35;;;4.70;99.90;;;;;;5072305;28;20224;-56
2020/12/14 07:03:02;;;;;;;11.60;7.60;;;4.80;99.90;;;;;;5067372;28;20714;-57
2020/12/14 07:05:31;;;;;;;11.32;7.40;;;4.60;99.90;;;;;;5068979;28;20584;-57
2020/12/14 07:07:58;;;;;;;10.23;7.55;;;4.80;99.90;;;;;;5060724;28;20339;-57
2020/12/14 07:10:25;;;;;;;8.52;7.22;;;4.80;99.90;;;;;;5065368;28;20174;-55
2020/12/14 07:12:51;;;;;;;12.30;8.15;;;4.70;99.90;;;;;;5064072;28;20187;-56
2020/12/14 07:15:28;;;;;;;9.65;7.35;;;4.50;99.90;;;;;;5063533;28;20288;-56
2020/12/14 07:18:02;;;;;;;12.43;8.80;;;5.20;99.90;;;;;;5066672;28;20227;-57
2020/12/14 07:20:28;;;;;;;9.32;7.47;;;4.80;99.90;;;;;;5068772;28;20181;-57
2020/12/14 07:22:59;;;;;;;13.00;7.93;;;4.90;99.90;;;;;;5062749;28;20642;-56
2020/12/14 07:25:25;;;;;;;9.70;7.82;;;4.60;99.90;;;;;;5067577;28;20228;-56
2020/12/14 07:27:51;;;;;;;10.20;8.03;;;4.60;99.90;;;;;;5067924;28;20241;-56
2020/12/14 07:30:19;;;;;;;9.20;7.23;;;4.90;99.90;;;;;;5066871;28;20436;-57
2020/12/14 07:32:46;;;;;;;10.10;8.38;;;4.60;99.90;;;;;;5066460;28;20185;-56
2020/12/14 07:35:12;;;;;;;9.48;7.80;;;4.90;99.90;;;;;;5070493;28;20201;-57
2020/12/14 07:37:40;;;;;;;10.40;7.80;;;4.90;99.90;;;;;;5065767;28;20571;-57
2020/12/14 07:40:10;;;;;;;11.18;9.25;;;4.60;99.90;;;;;;5065819;28;20471;-56
2020/12/14 07:42:38;;;;;;;11.48;9.18;;;4.80;99.90;;;;;;5062877;28;20189;-57
2020/12/14 07:45:08;;;;;;;9.55;7.45;;;4.60;99.90;;;;;;5063471;28;20364;-56
2020/12/14 07:47:33;;;;;;;11.77;8.18;;;4.60;99.90;;;;;;5075404;28;20216;-56
2020/12/14 07:50:12;;;;;;;11.07;9.27;;;4.80;99.90;;;;;;5066285;28;20211;-56
2020/12/14 07:52:38;;;;;;;10.55;8.35;;;4.60;99.90;;;;;;5066313;28;20320;-56
2020/12/14 07:55:06;;;;;;;10.20;8.13;;;4.80;99.90;;;;;;5068935;28;20303;-56
2020/12/14 07:57:36;;;;;;;10.43;8.15;;;4.90;99.90;;;;;;5066291;28;20189;-56
2020/12/14 08:00:07;;;;;;;12.40;8.23;;;4.70;99.90;;;;;;5059546;28;20667;-56
2020/12/14 08:02:33;;;;;;;11.57;8.48;;;5.00;99.90;;;;;;5070225;28;20631;-60
2020/12/14 08:05:00;;;;;;;11.00;8.25;;;4.90;99.90;;;;;;5064845;28;20303;-56
2020/12/14 08:07:30;;;;;;;10.68;9.27;;;4.90;99.90;;;;;;5086553;28;20186;-57
2020/12/14 08:09:58;;;;;;;9.98;8.00;;;5.20;99.90;;;;;;5085003;28;20890;-57
2020/12/14 08:12:24;;;;;;;11.60;8.30;;;5.00;99.90;;;;;;5084176;28;20185;-56
2020/12/14 08:14:50;;;;;;;9.43;8.07;;;5.10;99.90;;;;;;5067652;28;20181;-57
2020/12/14 08:17:16;;;;;;;11.60;8.98;;;5.00;99.90;;;;;;5069327;28;20551;-57
2020/12/14 08:19:44;;;;;;;13.43;8.37;;;5.20;99.90;;;;;;5069794;28;20210;-57
2020/12/14 08:22:12;;;;;;;9.90;8.05;;;5.00;99.90;;;;;;5069599;28;20214;-56
2020/12/14 08:24:40;;;;;;;12.15;8.50;;;5.20;99.90;;;;;;5067650;28;20902;-57
2020/12/14 08:27:12;;;;;;;10.30;8.25;;;5.10;99.90;;;;;;5068121;28;20209;-56
2020/12/14 08:29:59;;;;;;;10.15;8.40;;;5.00;99.90;;;;;;5083955;28;20186;-56
2020/12/14 08:32:25;;;;;;;10.80;9.65;;;5.20;99.90;;;;;;5064234;28;20555;-56
2020/12/14 08:34:50;;;;;;;10.63;8.60;;;5.30;99.90;;;;;;5072543;28;20188;-58
2020/12/14 08:37:19;;;;;;;10.00;7.83;;;5.60;99.90;;;;;;5066634;28;20284;-58
2020/12/14 08:40:01;;;;;;;11.13;8.30;;;5.50;99.90;;;;;;5075781;28;20201;-57
2020/12/14 08:42:29;;;;;;;10.48;8.32;;;5.50;99.90;;;;;;5064331;28;20555;-57
2020/12/14 08:45:10;;;;;;;13.88;8.75;;;5.50;99.90;;;;;;5065786;28;20181;-56
2020/12/14 08:47:37;;;;;;;10.20;8.40;;;5.40;99.90;;;;;;5067243;28;20201;-56
2020/12/14 08:50:05;;;;;;;11.52;9.38;;;5.80;99.90;;;;;;5083142;28;20227;-58
2020/12/14 08:52:31;;;;;;;12.18;9.00;;;5.50;99.90;;;;;;5069215;28;20393;-57
2020/12/14 08:54:57;;;;;;;13.17;8.67;;;5.50;99.90;;;;;;5071797;28;20543;-56
2020/12/14 08:57:28;;;;;;;14.32;9.38;;;5.60;99.90;;;;;;5069227;28;20185;-56
2020/12/14 09:00:13;;;;;;;12.15;9.10;;;5.70;99.90;;;;;;5080824;28;20219;-57
2020/12/14 09:02:39;;;;;;;13.10;10.43;;;5.80;99.90;;;;;;5067994;28;20546;-61
2020/12/14 09:05:20;;;;;;;14.25;11.50;;;6.00;99.90;;;;;;5071034;28;20193;-59
2020/12/14 09:07:46;;;;;;;10.88;8.73;;;5.80;99.90;;;;;;5065722;28;20285;-57
2020/12/14 09:10:28;;;;;;;11.40;7.75;;;5.80;99.90;;;;;;5062368;28;20213;-58
2020/12/14 09:13:03;;;;;;;12.18;8.40;;;5.40;99.90;;;;;;5062397;28;20193;-57
2020/12/14 09:15:30;;;;;;;12.43;8.80;;;6.20;99.90;;;;;;5055242;28;20197;-57
2020/12/14 09:18:08;;;;;;;10.30;8.70;;;6.20;99.90;;;;;;5055982;28;20700;-58
2020/12/14 09:20:35;;;;;;;12.00;8.73;;;6.20;99.90;;;;;;5059507;28;20194;-58
2020/12/14 09:23:01;;;;;;;9.40;8.00;;;6.40;99.90;;;;;;5067936;28;20194;-58
2020/12/14 09:25:27;;;;;;;11.02;7.97;;;6.20;99.90;;;;;;5067093;28;20302;-58
2020/12/14 09:27:52;;;;;;;10.93;8.00;;;6.30;99.90;;;;;;5068837;28;20185;-57
2020/12/14 09:30:18;;;;;;;8.87;7.80;;;6.70;99.90;;;;;;5071814;28;20213;-58
2020/12/14 09:32:43;;;;;;;10.13;7.27;;;6.80;99.90;;;;;;5068570;28;20192;-58
2020/12/14 09:35:09;;;;;;;9.33;6.63;;;6.80;99.90;;;;;;5068050;28;20270;-59
2020/12/14 09:37:35;;;;;;;10.13;8.00;;;6.90;99.90;;;;;;5070194;28;20808;-58
2020/12/14 09:40:02;;;;;;;8.60;7.23;;;7.10;99.90;;;;;;5072593;28;20210;-58
2020/12/14 09:42:28;;;;;;;9.52;7.40;;;7.40;99.90;;;;;;5076605;28;20608;-58
2020/12/14 09:44:54;;;;;;;10.88;8.77;;;7.30;99.90;;;;;;5081906;28;20212;-56
2020/12/14 09:47:20;;;;;;;9.45;7.68;;;7.50;99.90;;;;;;5068198;28;20212;-56
2020/12/14 09:49:45;;;;;;;7.90;7.10;;;7.50;99.90;;;;;;5072811;28;20215;-57
2020/12/14 09:52:11;;;;;;;8.70;7.27;;;7.70;99.90;;;;;;5064837;28;20572;-57
2020/12/14 09:54:37;;;;;;;8.83;7.57;;;7.90;99.90;;;;;;5069395;28;20188;-57
2020/12/14 09:57:02;;;;;;;7.60;6.40;;;7.90;99.90;;;;;;5071368;28;20587;-57
2020/12/14 09:59:28;;;;;;;10.33;7.37;;;8.20;99.90;;;;;;5067972;28;20200;-57
2020/12/14 10:01:53;;;;;;;9.47;6.20;;;8.40;99.90;;;;;;5068235;28;20181;-57
2020/12/14 10:04:19;;;;;;;8.80;7.40;;;8.70;99.90;;;;;;5067750;28;20185;-57
2020/12/14 10:06:49;;;;;;;9.50;6.67;;;9.00;99.90;;;;;;5067280;28;20288;-57
2020/12/14 10:09:15;;;;;;;6.72;5.93;;;8.40;99.00;;;;;;5066053;28;20182;-57
2020/12/14 10:11:41;;;;;;;7.40;6.57;;;9.10;99.40;;;;;;5067789;28;20181;-57
2020/12/14 10:14:07;;;;;;;8.03;6.20;;;9.10;99.20;;;;;;5067670;28;20288;-57
2020/12/14 10:16:33;;;;;;;10.93;7.22;;;9.00;98.90;;;;;;5067382;28;20196;-57
2020/12/14 10:18:59;;;;;;;7.47;6.40;;;9.20;99.30;;;;;;5064361;28;20213;-57
2020/12/14 10:21:24;;;;;;;6.70;6.05;;;9.70;98.80;;;;;;5064665;28;20595;-57
2020/12/14 10:23:50;;;;;;;5.70;5.10;;;9.60;98.20;;;;;;5064968;28;20271;-57
2020/12/14 10:26:18;;;;;;;7.83;6.10;;;9.80;98.00;;;;;;5067614;28;20212;-57
2020/12/14 10:28:43;;;;;;;10.02;6.78;;;9.90;97.90;;;;;;5061285;28;20191;-57
2020/12/14 10:31:09;;;;;;;6.93;6.23;;;9.80;97.80;;;;;;5067645;28;20200;-57
2020/12/14 10:33:37;;;;;;;8.03;6.40;;;9.60;97.90;;;;;;5067710;28;20265;-57
2020/12/14 10:36:10;;;;;;;8.10;6.90;;;9.70;97.40;;;;;;5067991;28;20712;-57
2020/12/14 10:38:37;;;;;;;7.63;6.60;;;9.90;97.70;;;;;;5067570;28;20737;-57
2020/12/14 10:41:03;;;;;;;7.07;6.38;;;10.10;97.10;;;;;;5067836;28;20213;-57
2020/12/14 10:43:29;;;;;;;7.78;6.85;;;10.00;96.50;;;;;;5070738;28;20215;-57
2020/12/14 10:45:55;;;;;;;6.95;6.25;;;9.70;96.70;;;;;;5066563;28;20687;-58
2020/12/14 10:48:21;;;;;;;7.33;6.07;;;10.50;96.50;;;;;;5082303;28;20280;-57
2020/12/14 10:50:46;;;;;;;7.37;6.60;;;10.00;95.90;;;;;;5068553;28;20555;-57
2020/12/14 10:53:12;;;;;;;7.30;6.10;;;10.20;96.10;;;;;;5068570;28;20435;-57
2020/12/14 10:55:38;;;;;;;7.30;5.25;;;10.10;95.90;;;;;;5068028;28;20201;-57
2020/12/14 10:58:04;;;;;;;7.37;6.67;;;10.20;96.10;;;;;;5069312;28;20184;-57
2020/12/14 11:00:29;;;;;;;9.27;5.83;;;10.20;95.90;;;;;;5064518;28;20177;-57
2020/12/14 11:02:57;;;;;;;8.97;5.67;;;10.20;96.00;;;;;;5067032;28;20185;-57
2020/12/14 11:05:23;;;;;;;9.50;6.38;;;10.00;96.30;;;;;;5062887;28;20308;-57
2020/12/14 11:07:49;;;;;;;7.97;6.33;;;10.10;96.70;;;;;;5065779;28;20268;-57
2020/12/14 11:10:15;;;;;;;7.23;6.47;;;10.60;96.60;;;;;;5064041;28;20460;-57
2020/12/14 11:12:41;;;;;;;9.50;5.90;;;10.40;96.50;;;;;;5083050;28;20271;-57
2020/12/14 11:15:09;;;;;;;6.33;5.73;;;10.50;96.40;;;;;;5065133;28;20274;-57
2020/12/14 11:17:36;;;;;;;8.40;6.22;;;10.50;96.30;;;;;;5073084;28;20181;-57
2020/12/14 11:20:09;;;;;;;10.68;6.85;;;10.50;96.10;;;;;;5069304;28;20208;-57
2020/12/14 11:22:35;;;;;;;8.90;8.00;;;10.60;96.10;;;;;;5066653;28;20193;-57
2020/12/14 11:25:01;;;;;;;5.72;5.13;;;10.60;96.50;;;;;;5069532;28;20189;-57
2020/12/14 11:27:27;;;;;;;6.82;6.22;;;10.60;96.00;;;;;;5066690;28;20627;-57
2020/12/14 11:29:53;;;;;;;6.35;5.75;;;10.90;96.00;;;;;;5050386;28;20676;-57
2020/12/14 11:32:19;;;;;;;6.37;5.33;;;10.90;95.60;;;;;;5068778;28;20176;-57
2020/12/14 11:34:44;;;;;;;6.70;5.53;;;11.20;95.40;;;;;;5062011;28;20185;-60
2020/12/14 11:37:10;;;;;;;11.47;6.50;;;11.10;95.10;;;;;;5062646;28;20210;-60
2020/12/14 11:39:36;;;;;;;5.77;4.97;;;10.90;95.30;;;;;;5065395;28;20217;-59
2020/12/14 11:42:03;;;;;;;5.53;5.03;;;11.10;95.40;;;;;;5068991;28;20226;-59
2020/12/14 11:44:28;;;;;;;6.53;5.20;;;11.20;94.90;;;;;;5070660;28;20561;-59
2020/12/14 11:46:54;;;;;;;9.60;4.57;;;11.30;94.70;;;;;;5069973;28;20197;-59
2020/12/14 11:49:20;;;;;;;5.07;4.57;;;11.20;94.80;;;;;;5069123;28;20461;-58
2020/12/14 11:51:47;;;;;;;5.40;4.83;;;11.50;94.50;;;;;;5070023;28;20281;-58
2020/12/14 11:54:13;;;;;;;5.28;4.10;;;11.60;93.90;;;;;;5069388;28;20571;-58
2020/12/14 11:56:39;;;;;;;7.65;5.65;;;11.80;94.00;;;;;;5068665;28;20205;-56
2020/12/14 11:59:05;;;;;;;7.30;4.83;;;11.30;94.40;;;;;;5068142;28;20200;-57
2020/12/14 12:01:30;;;;;;;4.10;3.73;;;11.50;94.60;;;;;;5066523;28;20646;-57
2020/12/14 12:03:56;;;;;;;6.87;5.07;;;11.60;94.10;;;;;;5070743;28;20494;-59
2020/12/14 12:06:29;;;;;;;11.63;5.77;;;11.60;94.00;;;;;;5069712;28;20213;-58
2020/12/14 12:08:56;;;;;;;5.05;4.55;;;11.80;93.90;;;;;;5072179;28;20646;-58
2020/12/14 12:11:21;;;;;;;6.43;4.35;;;11.80;93.60;;;;;;5067200;28;20321;-58
2020/12/14 12:13:47;;;;;;;5.33;4.27;;;11.60;93.50;;;;;;5070083;28;20269;-58
2020/12/14 12:16:13;;;;;;;5.23;3.70;;;12.00;93.70;;;;;;5069025;28;20205;-57
2020/12/14 12:18:39;;;;;;;5.40;4.90;;;12.00;93.60;;;;;;5067383;28;21066;-57
2020/12/14 12:21:06;;;;;;;6.37;5.00;;;11.80;93.30;;;;;;5066765;28;20547;-57
2020/12/14 12:23:32;;;;;;;5.00;4.50;;;12.10;93.50;;;;;;5069220;28;20602;-57
2020/12/14 12:25:57;;;;;;;8.30;7.40;;;12.10;93.30;;;;;;5068278;28;20210;-57
2020/12/14 12:28:23;;;;;;;4.77;4.40;;;12.40;93.10;;;;;;5068529;28;20506;-58
2020/12/14 12:30:49;;;;;;;4.83;4.43;;;12.40;92.80;;;;;;5071686;28;20206;-58
2020/12/14 12:33:14;;;;;;;5.57;4.10;;;12.30;92.80;;;;;;5065827;28;20219;-58
2020/12/14 12:35:40;;;;;;;4.20;3.80;;;12.40;92.60;;;;;;5068415;28;20593;-57
2020/12/14 12:38:05;;;;;;;6.17;4.97;;;12.50;92.10;;;;;;5069117;28;20547;-57
2020/12/14 12:40:31;;;;;;;6.43;4.47;;;12.40;92.60;;;;;;5074111;28;20176;-57
2020/12/14 12:42:57;;;;;;;6.33;4.70;;;12.80;92.40;;;;;;5069216;28;20249;-58
2020/12/14 12:45:22;;;;;;;4.30;3.70;;;12.50;92.30;;;;;;5069790;28;20203;-57
2020/12/14 12:47:48;;;;;;;5.90;4.97;;;12.60;92.10;;;;;;5067287;28;20208;-58
2020/12/14 12:50:14;;;;;;;4.17;3.77;;;12.70;91.80;;;;;;5068073;28;20285;-58
2020/12/14 12:52:39;;;;;;;4.27;3.87;;;12.60;92.00;;;;;;5068171;28;20645;-58
2020/12/14 12:55:05;;;;;;;5.53;3.70;;;12.30;92.50;;;;;;5069192;28;20329;-58